createdAt,value
2023-12-03T00:00:32.696Z,1030.41
2023-12-03T00:01:02.757Z,1030.51
2023-12-03T00:01:34.376Z,1030.51
2023-12-03T00:02:07.265Z,1030.41
2023-12-03T00:02:38.420Z,1030.41
2023-12-03T00:03:10.617Z,1030.41
2023-12-03T00:03:27.510Z,1030.41
2023-12-03T00:03:58.590Z,1030.34
2023-12-03T00:04:31.276Z,1030.34
2023-12-03T00:04:47.377Z,1030.61
2023-12-03T00:05:18.829Z,1030.61
2023-12-03T00:05:40.318Z,1030.51
2023-12-03T00:06:07.250Z,1030.51
2023-12-03T00:06:41.225Z,1030.51
2023-12-03T00:07:10.661Z,1030.41
2023-12-03T00:07:27.111Z,1030.41
2023-12-03T00:07:58.571Z,1030.51
2023-12-03T00:08:41.841Z,1030.51
2023-12-03T00:08:50.929Z,1030.41
2023-12-03T00:09:18.452Z,1030.41
2023-12-03T00:09:40.387Z,1030.34
2023-12-03T00:10:08.743Z,1030.34
2023-12-03T00:10:38.429Z,1030.34
2023-12-03T00:11:13.993Z,1030.51
2023-12-03T00:11:40.120Z,1030.41
2023-12-03T00:11:59.466Z,1030.41
2023-12-03T00:12:30.418Z,1030.41
2023-12-03T00:12:47.125Z,1030.61
2023-12-03T00:13:18.271Z,1030.61
2023-12-03T00:13:40.180Z,1030.51
2023-12-03T00:14:07.245Z,1030.51
2023-12-03T00:14:38.652Z,1030.51
2023-12-03T00:15:12.749Z,1030.41
2023-12-03T00:15:27.323Z,1030.41
2023-12-03T00:15:59.906Z,1030.41
2023-12-03T00:16:30.644Z,1030.41
2023-12-03T00:16:47.285Z,1030.34
2023-12-03T00:17:18.444Z,1030.34
2023-12-03T00:17:40.835Z,1030.51
2023-12-03T00:18:07.486Z,1030.51
2023-12-03T00:18:38.788Z,1030.51
2023-12-03T00:19:10.768Z,1030.51
2023-12-03T00:19:26.880Z,1030.51
2023-12-03T00:19:58.338Z,1030.51
2023-12-03T00:20:31.430Z,1030.51
2023-12-03T00:20:47.048Z,1030.61
2023-12-03T00:21:20.766Z,1030.61
2023-12-03T00:21:41.576Z,1030.51
2023-12-03T00:22:08.900Z,1030.51
2023-12-03T00:22:38.437Z,1030.51
2023-12-03T00:23:12.589Z,1030.61
2023-12-03T00:23:37.326Z,1030.71
2023-12-03T00:23:59.709Z,1030.71
2023-12-03T00:24:30.490Z,1030.71
2023-12-03T00:25:03.447Z,1030.51
2023-12-03T00:25:34.411Z,1030.51
2023-12-03T00:26:07.237Z,1030.51
2023-12-03T00:26:38.358Z,1030.51
2023-12-03T00:27:10.718Z,1030.24
2023-12-03T00:27:37.208Z,1030.41
2023-12-03T00:27:58.666Z,1030.41
2023-12-03T00:28:30.556Z,1030.41
2023-12-03T00:29:02.459Z,1030.51
2023-12-03T00:29:35.252Z,1030.51
2023-12-03T00:30:10.635Z,1030.61
2023-12-03T00:30:38.650Z,1030.61
2023-12-03T00:31:10.742Z,1030.61
2023-12-03T00:31:36.681Z,1030.51
2023-12-03T00:31:58.556Z,1030.51
2023-12-03T00:32:30.505Z,1030.51
2023-12-03T00:33:02.663Z,1030.61
2023-12-03T00:33:35.310Z,1030.61
2023-12-03T00:34:07.662Z,1030.71
2023-12-03T00:34:38.849Z,1030.71
2023-12-03T00:35:12.309Z,1030.71
2023-12-03T00:35:41.223Z,1030.71
2023-12-03T00:36:03.438Z,1030.71
2023-12-03T00:36:31.282Z,1030.71
2023-12-03T00:37:02.343Z,1030.61
2023-12-03T00:37:34.961Z,1030.61
2023-12-03T00:38:07.356Z,1030.82
2023-12-03T00:38:38.433Z,1030.82
2023-12-03T00:39:10.620Z,1030.61
2023-12-03T00:39:37.787Z,1030.82
2023-12-03T00:40:05.676Z,1030.82
2023-12-03T00:40:30.641Z,1030.82
2023-12-03T00:41:02.182Z,1030.61
2023-12-03T00:41:34.403Z,1030.61
2023-12-03T00:42:07.413Z,1030.71
2023-12-03T00:42:38.893Z,1030.71
2023-12-03T00:43:10.522Z,1030.82
2023-12-03T00:43:37.400Z,1030.71
2023-12-03T00:43:59.141Z,1030.71
2023-12-03T00:44:30.571Z,1030.71
2023-12-03T00:45:05.648Z,1030.71
2023-12-03T00:45:34.712Z,1030.71
2023-12-03T00:46:07.184Z,1030.92
2023-12-03T00:46:42.473Z,1030.92
2023-12-03T00:47:10.527Z,1030.92
2023-12-03T00:47:36.963Z,1030.71
2023-12-03T00:47:58.501Z,1030.71
2023-12-03T00:48:35.332Z,1030.71
2023-12-03T00:49:02.771Z,1030.82
2023-12-03T00:49:34.585Z,1030.82
2023-12-03T00:50:08.862Z,1030.92
2023-12-03T00:50:38.620Z,1030.92
2023-12-03T00:51:11.079Z,1031.12
2023-12-03T00:51:38.074Z,1030.92
2023-12-03T00:51:59.877Z,1030.92
2023-12-03T00:52:32.073Z,1030.92
2023-12-03T00:53:03.626Z,1030.92
2023-12-03T00:53:35.764Z,1030.92
2023-12-03T00:54:07.336Z,1031.12
2023-12-03T00:54:38.537Z,1031.12
2023-12-03T00:55:12.106Z,1030.82
2023-12-03T00:55:37.177Z,1031.02
2023-12-03T00:55:59.715Z,1031.02
2023-12-03T00:56:30.448Z,1031.02
2023-12-03T00:57:02.727Z,1030.92
2023-12-03T00:57:34.602Z,1030.92
2023-12-03T00:58:08.114Z,1031.12
2023-12-03T00:58:38.479Z,1031.12
2023-12-03T00:59:10.930Z,1031.02
2023-12-03T00:59:37.175Z,1030.82
2023-12-03T00:59:58.440Z,1030.82
2023-12-03T01:00:32.096Z,1030.82
2023-12-03T01:01:03.056Z,1030.92
2023-12-03T01:01:34.576Z,1030.92
2023-12-03T01:02:07.310Z,1030.92
2023-12-03T01:02:38.843Z,1030.92
2023-12-03T01:03:10.758Z,1030.92
2023-12-03T01:03:36.976Z,1031.22
2023-12-03T01:03:59.135Z,1031.22
2023-12-03T01:04:30.609Z,1031.22
2023-12-03T01:05:04.100Z,1030.92
2023-12-03T01:05:34.682Z,1030.92
2023-12-03T01:06:07.302Z,1031.02
2023-12-03T01:06:38.597Z,1031.02
2023-12-03T01:07:10.743Z,1030.82
2023-12-03T01:07:36.806Z,1031.02
2023-12-03T01:07:58.485Z,1031.02
2023-12-03T01:08:30.510Z,1031.02
2023-12-03T01:09:02.488Z,1030.92
2023-12-03T01:09:34.449Z,1030.92
2023-12-03T01:10:08.927Z,1031.02
2023-12-03T01:10:38.492Z,1031.02
2023-12-03T01:11:10.591Z,1030.92
2023-12-03T01:11:37.068Z,1031.12
2023-12-03T01:11:58.771Z,1031.12
2023-12-03T01:12:30.806Z,1031.12
2023-12-03T01:13:02.616Z,1031.12
2023-12-03T01:13:34.506Z,1031.12
2023-12-03T01:14:07.264Z,1031.12
2023-12-03T01:14:38.320Z,1031.12
2023-12-03T01:15:12.913Z,1031.02
2023-12-03T01:15:37.306Z,1030.82
2023-12-03T01:16:04.216Z,1030.82
2023-12-03T01:16:30.716Z,1030.82
2023-12-03T01:17:02.382Z,1030.82
2023-12-03T01:17:35.315Z,1030.82
2023-12-03T01:18:07.342Z,1031.02
2023-12-03T01:18:39.199Z,1031.02
2023-12-03T01:19:10.871Z,1031.12
2023-12-03T01:19:37.427Z,1031.22
2023-12-03T01:19:58.738Z,1031.22
2023-12-03T01:20:31.573Z,1031.22
2023-12-03T01:21:02.502Z,1031.12
2023-12-03T01:21:34.941Z,1031.12
2023-12-03T01:22:07.337Z,1031.02
2023-12-03T01:22:38.336Z,1031.02
2023-12-03T01:23:10.520Z,1031.12
2023-12-03T01:23:36.809Z,1031.22
2023-12-03T01:23:58.411Z,1031.22
2023-12-03T01:24:31.760Z,1031.22
2023-12-03T01:25:05.963Z,1031.02
2023-12-03T01:25:34.976Z,1031.02
2023-12-03T01:26:07.330Z,1031.12
2023-12-03T01:26:38.813Z,1031.12
2023-12-03T01:27:10.799Z,1031.22
2023-12-03T01:27:37.070Z,1031.12
2023-12-03T01:27:58.474Z,1031.12
2023-12-03T01:28:30.454Z,1031.12
2023-12-03T01:29:02.775Z,1031.02
2023-12-03T01:29:34.626Z,1031.02
2023-12-03T01:30:09.932Z,1031.22
2023-12-03T01:30:38.830Z,1031.22
2023-12-03T01:31:10.630Z,1031.32
2023-12-03T01:31:37.018Z,1031.32
2023-12-03T01:31:59.137Z,1031.32
2023-12-03T01:32:30.702Z,1031.32
2023-12-03T01:33:02.687Z,1031.22
2023-12-03T01:33:34.783Z,1031.22
2023-12-03T01:34:07.425Z,1031.32
2023-12-03T01:34:38.571Z,1031.32
2023-12-03T01:35:12.685Z,1031.42
2023-12-03T01:35:38.073Z,1031.22
2023-12-03T01:35:59.918Z,1031.22
2023-12-03T01:36:31.417Z,1031.22
2023-12-03T01:37:03.522Z,1031.12
2023-12-03T01:37:34.854Z,1031.12
2023-12-03T01:38:08.807Z,1031.32
2023-12-03T01:38:38.629Z,1031.32
2023-12-03T01:39:10.653Z,1031.42
2023-12-03T01:39:37.006Z,1031.42
2023-12-03T01:39:58.785Z,1031.42
2023-12-03T01:40:31.151Z,1031.42
2023-12-03T01:41:02.551Z,1031.42
2023-12-03T01:41:36.157Z,1031.42
2023-12-03T01:42:07.770Z,1031.42
2023-12-03T01:42:38.553Z,1031.42
2023-12-03T01:43:10.939Z,1031.42
2023-12-03T01:43:36.826Z,1031.32
2023-12-03T01:43:58.493Z,1031.32
2023-12-03T01:44:30.626Z,1031.32
2023-12-03T01:45:05.501Z,1031.42
2023-12-03T01:45:34.679Z,1031.42
2023-12-03T01:46:07.250Z,1031.42
2023-12-03T01:46:38.863Z,1031.42
2023-12-03T01:47:10.659Z,1031.32
2023-12-03T01:47:37.347Z,1031.32
2023-12-03T01:47:58.568Z,1031.32
2023-12-03T01:48:31.230Z,1031.32
2023-12-03T01:49:02.643Z,1031.53
2023-12-03T01:49:35.013Z,1031.53
2023-12-03T01:50:08.372Z,1031.42
2023-12-03T01:50:39.156Z,1031.42
2023-12-03T01:51:10.678Z,1031.32
2023-12-03T01:51:36.860Z,1031.12
2023-12-03T01:51:58.566Z,1031.12
2023-12-03T01:52:30.559Z,1031.12
2023-12-03T01:53:02.354Z,1031.32
2023-12-03T01:53:34.788Z,1031.32
2023-12-03T01:54:07.496Z,1031.53
2023-12-03T01:54:38.521Z,1031.53
2023-12-03T01:55:11.903Z,1031.42
2023-12-03T01:55:37.084Z,1031.63
2023-12-03T01:55:59.825Z,1031.63
2023-12-03T01:56:30.606Z,1031.63
2023-12-03T01:57:02.224Z,1031.42
2023-12-03T01:57:35.371Z,1031.42
2023-12-03T01:58:07.368Z,1031.22
2023-12-03T01:58:38.991Z,1031.22
2023-12-03T01:59:10.614Z,1031.53
2023-12-03T01:59:37.744Z,1031.32
2023-12-03T01:59:58.573Z,1031.32
2023-12-03T02:00:33.737Z,1031.32
2023-12-03T02:01:03.038Z,1031.63
2023-12-03T02:01:34.602Z,1031.63
2023-12-03T02:02:07.470Z,1031.53
2023-12-03T02:02:38.591Z,1031.53
2023-12-03T02:03:10.699Z,1031.53
2023-12-03T02:03:36.912Z,1031.42
2023-12-03T02:03:58.590Z,1031.42
2023-12-03T02:04:30.667Z,1031.42
2023-12-03T02:05:04.026Z,1031.42
2023-12-03T02:05:34.593Z,1031.42
2023-12-03T02:06:07.554Z,1031.63
2023-12-03T02:06:38.827Z,1031.63
2023-12-03T02:07:15.604Z,1031.53
2023-12-03T02:07:36.910Z,1031.53
2023-12-03T02:07:58.512Z,1031.53
2023-12-03T02:08:30.516Z,1031.53
2023-12-03T02:09:02.270Z,1031.63
2023-12-03T02:09:34.566Z,1031.63
2023-12-03T02:10:08.968Z,1031.53
2023-12-03T02:10:38.703Z,1031.53
2023-12-03T02:11:10.779Z,1031.53
2023-12-03T02:11:36.897Z,1031.32
2023-12-03T02:11:58.564Z,1031.32
2023-12-03T02:12:30.569Z,1031.32
2023-12-03T02:13:02.563Z,1031.53
2023-12-03T02:13:34.877Z,1031.53
2023-12-03T02:14:07.409Z,1031.42
2023-12-03T02:14:38.559Z,1031.42
2023-12-03T02:15:12.947Z,1031.53
2023-12-03T02:15:37.090Z,1031.53
2023-12-03T02:16:00.202Z,1031.53
2023-12-03T02:16:30.862Z,1031.53
2023-12-03T02:17:03.361Z,1031.53
2023-12-03T02:17:34.885Z,1031.53
2023-12-03T02:18:07.269Z,1031.53
2023-12-03T02:18:38.842Z,1031.53
2023-12-03T02:19:10.648Z,1031.63
2023-12-03T02:19:37.308Z,1031.63
2023-12-03T02:19:58.724Z,1031.63
2023-12-03T02:20:31.109Z,1031.63
2023-12-03T02:21:02.530Z,1031.53
2023-12-03T02:21:34.646Z,1031.53
2023-12-03T02:22:07.408Z,1031.53
2023-12-03T02:22:39.345Z,1031.53
2023-12-03T02:23:12.845Z,1031.73
2023-12-03T02:23:36.695Z,1031.53
2023-12-03T02:23:58.801Z,1031.53
2023-12-03T02:24:36.061Z,1031.53
2023-12-03T02:25:04.195Z,1031.73
2023-12-03T02:25:35.725Z,1031.73
2023-12-03T02:26:07.350Z,1031.83
2023-12-03T02:26:39.322Z,1031.83
2023-12-03T02:27:11.061Z,1031.53
2023-12-03T02:27:37.317Z,1031.42
2023-12-03T02:27:59.251Z,1031.42
2023-12-03T02:28:30.745Z,1031.42
2023-12-03T02:29:02.725Z,1031.63
2023-12-03T02:29:34.713Z,1031.63
2023-12-03T02:30:09.498Z,1031.73
2023-12-03T02:30:38.847Z,1031.73
2023-12-03T02:31:10.646Z,1031.73
2023-12-03T02:31:36.968Z,1031.63
2023-12-03T02:31:58.988Z,1031.63
2023-12-03T02:32:30.768Z,1031.63
2023-12-03T02:33:02.533Z,1031.63
2023-12-03T02:33:35.697Z,1031.63
2023-12-03T02:34:07.910Z,1031.83
2023-12-03T02:34:38.469Z,1031.83
2023-12-03T02:35:12.668Z,1031.73
2023-12-03T02:35:37.559Z,1031.53
2023-12-03T02:35:59.181Z,1031.53
2023-12-03T02:36:30.486Z,1031.53
2023-12-03T02:37:03.217Z,1031.83
2023-12-03T02:37:36.521Z,1031.83
2023-12-03T02:38:07.008Z,1031.53
2023-12-03T02:38:38.652Z,1031.53
2023-12-03T02:39:10.576Z,1031.73
2023-12-03T02:39:36.917Z,1031.53
2023-12-03T02:39:59.046Z,1031.53
2023-12-03T02:40:32.043Z,1031.53
2023-12-03T02:41:02.533Z,1031.73
2023-12-03T02:41:34.473Z,1031.73
2023-12-03T02:42:07.803Z,1031.73
2023-12-03T02:42:38.616Z,1031.73
2023-12-03T02:43:10.832Z,1031.32
2023-12-03T02:43:36.698Z,1031.53
2023-12-03T02:43:58.668Z,1031.53
2023-12-03T02:44:30.400Z,1031.53
2023-12-03T02:45:05.940Z,1031.63
2023-12-03T02:45:34.884Z,1031.63
2023-12-03T02:46:07.284Z,1031.63
2023-12-03T02:46:38.649Z,1031.63
2023-12-03T02:47:10.834Z,1031.63
2023-12-03T02:47:37.169Z,1031.73
2023-12-03T02:47:58.897Z,1031.73
2023-12-03T02:48:30.818Z,1031.73
2023-12-03T02:49:02.561Z,1031.53
2023-12-03T02:49:34.943Z,1031.53
2023-12-03T02:50:08.974Z,1031.63
2023-12-03T02:50:38.590Z,1031.63
2023-12-03T02:51:10.594Z,1031.73
2023-12-03T02:51:36.865Z,1031.53
2023-12-03T02:51:59.374Z,1031.53
2023-12-03T02:52:30.639Z,1031.53
2023-12-03T02:53:03.370Z,1031.53
2023-12-03T02:53:34.878Z,1031.53
2023-12-03T02:54:07.505Z,1031.83
2023-12-03T02:54:38.467Z,1031.83
2023-12-03T02:55:11.888Z,1031.53
2023-12-03T02:55:36.915Z,1031.63
2023-12-03T02:55:59.356Z,1031.63
2023-12-03T02:56:30.710Z,1031.63
2023-12-03T02:57:02.772Z,1031.73
2023-12-03T02:57:34.967Z,1031.73
2023-12-03T02:58:07.729Z,1031.83
2023-12-03T02:58:38.520Z,1031.83
2023-12-03T02:59:12.210Z,1031.73
2023-12-03T02:59:37.324Z,1031.73
2023-12-03T02:59:59.344Z,1031.73
2023-12-03T03:00:31.855Z,1031.73
2023-12-03T03:01:03.733Z,1031.73
2023-12-03T03:01:34.617Z,1031.73
2023-12-03T03:02:07.248Z,1031.73
2023-12-03T03:02:38.924Z,1031.73
2023-12-03T03:03:10.600Z,1031.73
2023-12-03T03:03:37.566Z,1031.53
2023-12-03T03:03:58.841Z,1031.53
2023-12-03T03:04:30.530Z,1031.53
2023-12-03T03:05:03.985Z,1031.83
2023-12-03T03:05:34.649Z,1031.83
2023-12-03T03:06:07.378Z,1031.73
2023-12-03T03:06:38.527Z,1031.73
2023-12-03T03:07:10.620Z,1031.73
2023-12-03T03:07:36.650Z,1031.73
2023-12-03T03:07:58.738Z,1031.73
2023-12-03T03:08:30.547Z,1031.73
2023-12-03T03:09:02.579Z,1031.73
2023-12-03T03:09:34.908Z,1031.73
2023-12-03T03:10:08.857Z,1031.63
2023-12-03T03:10:38.535Z,1031.63
2023-12-03T03:11:11.110Z,1031.73
2023-12-03T03:11:36.709Z,1031.83
2023-12-03T03:11:58.783Z,1031.83
2023-12-03T03:12:31.344Z,1031.83
2023-12-03T03:13:02.617Z,1031.63
2023-12-03T03:13:34.602Z,1031.63
2023-12-03T03:14:07.037Z,1031.83
2023-12-03T03:14:38.570Z,1031.83
2023-12-03T03:15:12.394Z,1031.63
2023-12-03T03:15:36.870Z,1031.53
2023-12-03T03:15:59.734Z,1031.53
2023-12-03T03:16:30.515Z,1031.53
2023-12-03T03:17:02.587Z,1031.83
2023-12-03T03:17:34.744Z,1031.83
2023-12-03T03:18:07.625Z,1031.73
2023-12-03T03:18:39.221Z,1031.73
2023-12-03T03:19:10.768Z,1031.73
2023-12-03T03:19:37.074Z,1031.63
2023-12-03T03:19:59.043Z,1031.63
2023-12-03T03:20:31.201Z,1031.63
2023-12-03T03:21:02.625Z,1031.73
2023-12-03T03:21:34.680Z,1031.73
2023-12-03T03:22:07.197Z,1031.83
2023-12-03T03:22:38.516Z,1031.83
2023-12-03T03:23:10.613Z,1031.83
2023-12-03T03:23:36.945Z,1031.73
2023-12-03T03:23:58.631Z,1031.73
2023-12-03T03:24:31.229Z,1031.73
2023-12-03T03:25:03.818Z,1031.73
2023-12-03T03:25:35.022Z,1031.73
2023-12-03T03:26:08.241Z,1031.63
2023-12-03T03:26:38.801Z,1031.63
2023-12-03T03:27:10.736Z,1031.83
2023-12-03T03:27:37.070Z,1031.63
2023-12-03T03:27:59.175Z,1031.63
2023-12-03T03:28:30.536Z,1031.63
2023-12-03T03:29:02.531Z,1031.63
2023-12-03T03:29:34.788Z,1031.63
2023-12-03T03:30:09.308Z,1031.63
2023-12-03T03:30:38.516Z,1031.63
2023-12-03T03:31:10.728Z,1031.63
2023-12-03T03:31:36.977Z,1031.83
2023-12-03T03:31:59.432Z,1031.83
2023-12-03T03:32:30.545Z,1031.83
2023-12-03T03:33:02.998Z,1031.53
2023-12-03T03:33:34.603Z,1031.53
2023-12-03T03:34:07.262Z,1031.73
2023-12-03T03:34:38.596Z,1031.73
2023-12-03T03:35:12.068Z,1031.73
2023-12-03T03:35:36.934Z,1031.53
2023-12-03T03:35:59.548Z,1031.53
2023-12-03T03:36:30.608Z,1031.53
2023-12-03T03:37:02.984Z,1031.42
2023-12-03T03:37:34.779Z,1031.42
2023-12-03T03:38:07.523Z,1031.63
2023-12-03T03:38:38.595Z,1031.63
2023-12-03T03:39:10.687Z,1031.42
2023-12-03T03:39:37.711Z,1031.73
2023-12-03T03:39:58.942Z,1031.73
2023-12-03T03:40:31.701Z,1031.73
2023-12-03T03:41:02.410Z,1031.42
2023-12-03T03:41:34.563Z,1031.42
2023-12-03T03:42:07.329Z,1031.42
2023-12-03T03:42:38.641Z,1031.42
2023-12-03T03:43:11.096Z,1031.63
2023-12-03T03:43:36.959Z,1031.53
2023-12-03T03:43:59.027Z,1031.53
2023-12-03T03:44:30.503Z,1031.53
2023-12-03T03:45:06.294Z,1031.73
2023-12-03T03:45:34.688Z,1031.73
2023-12-03T03:46:07.248Z,1031.63
2023-12-03T03:46:38.531Z,1031.63
2023-12-03T03:47:10.663Z,1031.53
2023-12-03T03:47:36.729Z,1031.83
2023-12-03T03:47:59.110Z,1031.83
2023-12-03T03:48:30.559Z,1031.83
2023-12-03T03:49:03.109Z,1031.63
2023-12-03T03:49:35.670Z,1031.63
2023-12-03T03:50:08.974Z,1031.63
2023-12-03T03:50:38.555Z,1031.63
2023-12-03T03:51:10.925Z,1031.83
2023-12-03T03:51:36.946Z,1031.83
2023-12-03T03:51:58.738Z,1031.83
2023-12-03T03:52:30.556Z,1031.83
2023-12-03T03:53:02.541Z,1031.73
2023-12-03T03:53:34.893Z,1031.73
2023-12-03T03:54:07.295Z,1031.73
2023-12-03T03:54:38.623Z,1031.73
2023-12-03T03:55:11.302Z,1031.63
2023-12-03T03:55:37.692Z,1031.73
2023-12-03T03:55:59.799Z,1031.73
2023-12-03T03:56:31.251Z,1031.73
2023-12-03T03:57:02.588Z,1031.83
2023-12-03T03:57:34.632Z,1031.83
2023-12-03T03:58:07.196Z,1031.83
2023-12-03T03:58:38.620Z,1031.83
2023-12-03T03:59:10.687Z,1031.63
2023-12-03T03:59:36.823Z,1031.63
2023-12-03T03:59:58.723Z,1031.63
2023-12-03T04:00:31.821Z,1031.63
2023-12-03T04:01:04.379Z,1031.83
2023-12-03T04:01:36.136Z,1031.83
2023-12-03T04:02:07.236Z,1031.73
2023-12-03T04:02:39.379Z,1031.73
2023-12-03T04:03:10.703Z,1031.93
2023-12-03T04:03:37.001Z,1031.73
2023-12-03T04:03:59.256Z,1031.73
2023-12-03T04:04:30.754Z,1031.73
2023-12-03T04:05:04.751Z,1032.03
2023-12-03T04:05:34.646Z,1032.03
2023-12-03T04:06:07.444Z,1031.93
2023-12-03T04:06:38.577Z,1031.93
2023-12-03T04:07:10.671Z,1032.03
2023-12-03T04:07:36.785Z,1031.83
2023-12-03T04:07:59.067Z,1031.83
2023-12-03T04:08:30.599Z,1031.83
2023-12-03T04:09:02.619Z,1032.14
2023-12-03T04:09:34.971Z,1032.14
2023-12-03T04:10:08.793Z,1031.83
2023-12-03T04:10:38.540Z,1031.83
2023-12-03T04:11:10.739Z,1031.93
2023-12-03T04:11:36.790Z,1031.73
2023-12-03T04:12:00.499Z,1031.73
2023-12-03T04:12:32.486Z,1031.73
2023-12-03T04:13:03.601Z,1031.93
2023-12-03T04:13:34.710Z,1031.93
2023-12-03T04:14:07.239Z,1031.83
2023-12-03T04:14:38.526Z,1031.83
2023-12-03T04:15:12.657Z,1031.73
2023-12-03T04:15:37.013Z,1031.93
2023-12-03T04:15:59.957Z,1031.93
2023-12-03T04:16:30.632Z,1031.93
2023-12-03T04:17:02.657Z,1031.83
2023-12-03T04:17:34.631Z,1031.83
2023-12-03T04:18:07.192Z,1031.93
2023-12-03T04:18:39.711Z,1031.93
2023-12-03T04:19:11.074Z,1031.93
2023-12-03T04:19:37.018Z,1031.93
2023-12-03T04:19:59.043Z,1031.93
2023-12-03T04:20:31.841Z,1031.93
2023-12-03T04:21:02.811Z,1032.03
2023-12-03T04:21:34.868Z,1032.03
2023-12-03T04:22:09.324Z,1032.14
2023-12-03T04:22:40.989Z,1032.14
2023-12-03T04:23:11.036Z,1032.14
2023-12-03T04:23:36.704Z,1031.83
2023-12-03T04:23:58.717Z,1031.83
2023-12-03T04:24:30.665Z,1031.83
2023-12-03T04:25:04.613Z,1032.03
2023-12-03T04:25:34.746Z,1032.03
2023-12-03T04:26:07.300Z,1032.24
2023-12-03T04:26:38.489Z,1032.24
2023-12-03T04:27:11.166Z,1032.03
2023-12-03T04:27:36.852Z,1032.14
2023-12-03T04:27:58.840Z,1032.14
2023-12-03T04:28:30.768Z,1032.14
2023-12-03T04:29:02.815Z,1032.14
2023-12-03T04:29:34.613Z,1032.14
2023-12-03T04:30:09.596Z,1031.93
2023-12-03T04:30:38.518Z,1031.93
2023-12-03T04:31:11.013Z,1031.93
2023-12-03T04:31:37.064Z,1031.73
2023-12-03T04:31:59.296Z,1031.73
2023-12-03T04:32:30.643Z,1031.73
2023-12-03T04:33:03.203Z,1031.73
2023-12-03T04:33:34.635Z,1031.73
2023-12-03T04:34:07.491Z,1031.93
2023-12-03T04:34:38.563Z,1031.93
2023-12-03T04:35:11.970Z,1031.93
2023-12-03T04:35:36.732Z,1031.93
2023-12-03T04:35:59.410Z,1031.93
2023-12-03T04:36:30.614Z,1031.93
2023-12-03T04:37:02.562Z,1031.93
2023-12-03T04:37:34.773Z,1031.93
2023-12-03T04:38:07.154Z,1031.83
2023-12-03T04:38:38.525Z,1031.83
2023-12-03T04:39:10.820Z,1031.83
2023-12-03T04:39:36.909Z,1031.83
2023-12-03T04:39:58.854Z,1031.83
2023-12-03T04:40:32.233Z,1031.83
2023-12-03T04:41:02.951Z,1031.93
2023-12-03T04:41:36.141Z,1031.93
2023-12-03T04:42:07.729Z,1031.83
2023-12-03T04:42:39.306Z,1031.83
2023-12-03T04:43:11.013Z,1031.93
2023-12-03T04:43:38.118Z,1031.73
2023-12-03T04:43:58.851Z,1031.73
2023-12-03T04:44:30.704Z,1031.73
2023-12-03T04:45:05.804Z,1031.83
2023-12-03T04:45:35.021Z,1031.83
2023-12-03T04:46:07.234Z,1032.03
2023-12-03T04:46:38.692Z,1032.03
2023-12-03T04:47:10.805Z,1032.03
2023-12-03T04:47:36.864Z,1032.03
2023-12-03T04:47:59.372Z,1032.03
2023-12-03T04:48:30.785Z,1032.03
2023-12-03T04:49:02.951Z,1031.93
2023-12-03T04:49:34.718Z,1031.93
2023-12-03T04:50:08.784Z,1031.93
2023-12-03T04:50:38.611Z,1031.93
2023-12-03T04:51:10.823Z,1031.93
2023-12-03T04:51:36.896Z,1032.14
2023-12-03T04:51:58.956Z,1032.14
2023-12-03T04:52:30.822Z,1032.14
2023-12-03T04:53:02.547Z,1031.83
2023-12-03T04:53:34.974Z,1031.83
2023-12-03T04:54:07.161Z,1031.83
2023-12-03T04:54:38.723Z,1031.83
2023-12-03T04:55:11.743Z,1031.83
2023-12-03T04:55:36.990Z,1031.93
2023-12-03T04:55:59.559Z,1031.93
2023-12-03T04:56:30.828Z,1031.93
2023-12-03T04:57:02.652Z,1031.93
2023-12-03T04:57:34.897Z,1031.93
2023-12-03T04:58:07.274Z,1031.83
2023-12-03T04:58:39.022Z,1031.83
2023-12-03T04:59:10.783Z,1032.14
2023-12-03T04:59:37.415Z,1031.83
2023-12-03T04:59:58.928Z,1031.83
2023-12-03T05:00:32.050Z,1031.83
2023-12-03T05:01:04.735Z,1031.93
2023-12-03T05:01:35.999Z,1031.93
2023-12-03T05:02:09.028Z,1032.03
2023-12-03T05:02:39.125Z,1032.03
2023-12-03T05:03:10.905Z,1031.93
2023-12-03T05:03:36.875Z,1031.83
2023-12-03T05:03:59.174Z,1031.83
2023-12-03T05:04:30.727Z,1031.83
2023-12-03T05:05:04.710Z,1031.73
2023-12-03T05:05:34.692Z,1031.73
2023-12-03T05:06:07.447Z,1032.03
2023-12-03T05:06:38.674Z,1032.03
2023-12-03T05:07:10.870Z,1032.14
2023-12-03T05:07:37.537Z,1031.83
2023-12-03T05:07:59.113Z,1031.83
2023-12-03T05:08:30.633Z,1031.83
2023-12-03T05:09:02.770Z,1031.93
2023-12-03T05:09:34.786Z,1031.93
2023-12-03T05:10:08.558Z,1031.93
2023-12-03T05:10:38.915Z,1031.93
2023-12-03T05:11:10.795Z,1032.14
2023-12-03T05:11:37.308Z,1031.93
2023-12-03T05:11:58.874Z,1031.93
2023-12-03T05:12:30.670Z,1031.93
2023-12-03T05:13:02.748Z,1032.14
2023-12-03T05:13:34.976Z,1032.14
2023-12-03T05:14:07.108Z,1031.93
2023-12-03T05:14:38.938Z,1031.93
2023-12-03T05:15:12.348Z,1032.14
2023-12-03T05:15:37.475Z,1032.03
2023-12-03T05:15:59.712Z,1032.03
2023-12-03T05:16:30.910Z,1032.03
2023-12-03T05:17:02.849Z,1031.93
2023-12-03T05:17:34.684Z,1031.93
2023-12-03T05:18:07.278Z,1032.14
2023-12-03T05:18:38.664Z,1032.14
2023-12-03T05:19:10.923Z,1032.24
2023-12-03T05:19:37.194Z,1032.34
2023-12-03T05:19:59.220Z,1032.34
2023-12-03T05:20:32.128Z,1032.34
2023-12-03T05:21:02.553Z,1032.14
2023-12-03T05:21:35.394Z,1032.14
2023-12-03T05:22:07.320Z,1032.14
2023-12-03T05:22:38.617Z,1032.14
2023-12-03T05:23:10.967Z,1032.24
2023-12-03T05:23:37.828Z,1032.03
2023-12-03T05:23:58.852Z,1032.03
2023-12-03T05:24:30.726Z,1032.03
2023-12-03T05:25:04.998Z,1032.14
2023-12-03T05:25:34.757Z,1032.14
2023-12-03T05:26:07.316Z,1032.14
2023-12-03T05:26:38.744Z,1032.14
2023-12-03T05:27:11.253Z,1032.03
2023-12-03T05:27:36.880Z,1032.14
2023-12-03T05:27:59.534Z,1032.14
2023-12-03T05:28:30.659Z,1032.14
2023-12-03T05:29:02.624Z,1032.14
2023-12-03T05:29:34.826Z,1032.14
2023-12-03T05:30:09.511Z,1032.24
2023-12-03T05:30:38.793Z,1032.24
2023-12-03T05:31:10.916Z,1032.14
2023-12-03T05:31:36.923Z,1032.24
2023-12-03T05:31:58.977Z,1032.24
2023-12-03T05:32:30.852Z,1032.24
2023-12-03T05:33:03.159Z,1032.03
2023-12-03T05:33:34.819Z,1032.03
2023-12-03T05:34:07.350Z,1032.34
2023-12-03T05:34:38.894Z,1032.34
2023-12-03T05:35:12.184Z,1032.03
2023-12-03T05:35:37.164Z,1032.14
2023-12-03T05:36:00.297Z,1032.14
2023-12-03T05:36:30.702Z,1032.14
2023-12-03T05:37:02.839Z,1032.14
2023-12-03T05:37:34.893Z,1032.14
2023-12-03T05:38:07.444Z,1032.03
2023-12-03T05:38:38.821Z,1032.03
2023-12-03T05:39:10.927Z,1032.24
2023-12-03T05:39:37.121Z,1032.14
2023-12-03T05:39:59.345Z,1032.14
2023-12-03T05:40:32.478Z,1032.14
2023-12-03T05:41:03.312Z,1032.24
2023-12-03T05:41:34.732Z,1032.24
2023-12-03T05:42:07.478Z,1032.24
2023-12-03T05:42:38.710Z,1032.24
2023-12-03T05:43:10.922Z,1032.14
2023-12-03T05:43:37.220Z,1032.03
2023-12-03T05:43:58.860Z,1032.03
2023-12-03T05:44:31.316Z,1032.03
2023-12-03T05:45:05.882Z,1032.24
2023-12-03T05:45:35.622Z,1032.24
2023-12-03T05:46:07.159Z,1032.24
2023-12-03T05:46:39.388Z,1032.24
2023-12-03T05:47:11.829Z,1032.34
2023-12-03T05:47:37.518Z,1032.34
2023-12-03T05:47:59.118Z,1032.34
2023-12-03T05:48:31.049Z,1032.34
2023-12-03T05:49:02.922Z,1032.24
2023-12-03T05:49:35.158Z,1032.24
2023-12-03T05:50:08.807Z,1032.34
2023-12-03T05:50:38.875Z,1032.34
2023-12-03T05:51:10.836Z,1032.14
2023-12-03T05:51:37.343Z,1032.34
2023-12-03T05:51:59.357Z,1032.34
2023-12-03T05:52:30.904Z,1032.34
2023-12-03T05:53:03.322Z,1032.34
2023-12-03T05:53:35.215Z,1032.34
2023-12-03T05:54:07.433Z,1032.54
2023-12-03T05:54:38.901Z,1032.54
2023-12-03T05:55:12.794Z,1032.44
2023-12-03T05:55:36.803Z,1032.24
2023-12-03T05:55:59.981Z,1032.24
2023-12-03T05:56:31.048Z,1032.24
2023-12-03T05:57:02.774Z,1032.34
2023-12-03T05:57:35.596Z,1032.34
2023-12-03T05:58:07.411Z,1032.44
2023-12-03T05:58:38.770Z,1032.44
2023-12-03T05:59:10.986Z,1032.34
2023-12-03T05:59:37.529Z,1032.44
2023-12-03T05:59:58.862Z,1032.44
2023-12-03T06:00:34.598Z,1032.44